sensor_id;sensor_type;location;lat;lon;timestamp;pressure;altitude;pressure_sealevel;temperature;humidity
54628;BME280;40525;55.926;21.066;2023-07-02T00:02:28;99972.85;;;18.38;74.31
54628;BME280;40525;55.926;21.066;2023-07-02T00:05:02;99966.09;;;18.40;74.64
54628;BME280;40525;55.926;21.066;2023-07-02T00:07:49;99963.27;;;18.39;74.46
54628;BME280;40525;55.926;21.066;2023-07-02T00:10:23;99960.22;;;18.40;74.44
54628;BME280;40525;55.926;21.066;2023-07-02T00:13:11;99957.95;;;18.39;74.22
54628;BME280;40525;55.926;21.066;2023-07-02T00:15:45;99957.04;;;18.38;74.22
54628;BME280;40525;55.926;21.066;2023-07-02T00:18:32;99952.96;;;18.35;74.25
54628;BME280;40525;55.926;21.066;2023-07-02T00:21:09;99948.69;;;18.35;74.34
54628;BME280;40525;55.926;21.066;2023-07-02T00:23:55;99945.45;;;18.35;74.65
54628;BME280;40525;55.926;21.066;2023-07-02T00:26:32;99948.06;;;18.38;74.92
54628;BME280;40525;55.926;21.066;2023-07-02T00:29:20;99948.71;;;18.39;74.85
54628;BME280;40525;55.926;21.066;2023-07-02T00:31:54;99947.40;;;18.36;74.73
54628;BME280;40525;55.926;21.066;2023-07-02T00:34:41;99946.04;;;18.31;74.87
54628;BME280;40525;55.926;21.066;2023-07-02T00:37:15;99942.80;;;18.25;75.63
54628;BME280;40525;55.926;21.066;2023-07-02T00:40:01;99938.00;;;18.25;77.47
54628;BME280;40525;55.926;21.066;2023-07-02T00:42:36;99931.42;;;18.29;78.13
54628;BME280;40525;55.926;21.066;2023-07-02T00:45:22;99927.83;;;18.31;79.21
54628;BME280;40525;55.926;21.066;2023-07-02T00:48:17;99930.86;;;18.33;78.72
54628;BME280;40525;55.926;21.066;2023-07-02T00:51:18;99923.76;;;18.35;78.59
54628;BME280;40525;55.926;21.066;2023-07-02T00:53:54;99915.34;;;18.38;79.05
54628;BME280;40525;55.926;21.066;2023-07-02T00:56:41;99922.88;;;18.43;79.28
54628;BME280;40525;55.926;21.066;2023-07-02T00:59:15;99919.68;;;18.45;79.40
54628;BME280;40525;55.926;21.066;2023-07-02T01:02:02;99920.42;;;18.46;80.25
54628;BME280;40525;55.926;21.066;2023-07-02T01:04:37;99913.91;;;18.48;80.63
54628;BME280;40525;55.926;21.066;2023-07-02T01:07:29;99910.02;;;18.51;80.37
54628;BME280;40525;55.926;21.066;2023-07-02T01:10:03;99904.31;;;18.53;80.25
54628;BME280;40525;55.926;21.066;2023-07-02T01:12:51;99907.02;;;18.53;80.72
54628;BME280;40525;55.926;21.066;2023-07-02T01:15:31;99899.73;;;18.53;80.49
54628;BME280;40525;55.926;21.066;2023-07-02T01:18:13;99901.36;;;18.52;80.87
54628;BME280;40525;55.926;21.066;2023-07-02T01:20:54;99895.15;;;18.52;80.67
54628;BME280;40525;55.926;21.066;2023-07-02T01:23:34;99889.02;;;18.53;80.51
54628;BME280;40525;55.926;21.066;2023-07-02T01:26:15;99888.02;;;18.54;80.50
54628;BME280;40525;55.926;21.066;2023-07-02T01:28:55;99885.59;;;18.56;80.32
54628;BME280;40525;55.926;21.066;2023-07-02T01:31:39;99884.92;;;18.57;80.26
54628;BME280;40525;55.926;21.066;2023-07-02T01:34:20;99879.48;;;18.58;80.17
54628;BME280;40525;55.926;21.066;2023-07-02T01:37:02;99873.90;;;18.59;79.57
54628;BME280;40525;55.926;21.066;2023-07-02T01:39:44;99878.70;;;18.59;78.79
54628;BME280;40525;55.926;21.066;2023-07-02T01:42:23;99874.95;;;18.57;78.68
54628;BME280;40525;55.926;21.066;2023-07-02T01:45:03;99875.30;;;18.57;78.98
54628;BME280;40525;55.926;21.066;2023-07-02T01:47:44;99866.70;;;18.58;79.38
54628;BME280;40525;55.926;21.066;2023-07-02T01:50:24;99863.08;;;18.59;79.37
54628;BME280;40525;55.926;21.066;2023-07-02T01:53:04;99860.31;;;18.61;79.12
54628;BME280;40525;55.926;21.066;2023-07-02T01:55:44;99859.63;;;18.61;79.12
54628;BME280;40525;55.926;21.066;2023-07-02T01:58:24;99859.44;;;18.59;79.23
54628;BME280;40525;55.926;21.066;2023-07-02T02:01:04;99857.16;;;18.57;79.49
54628;BME280;40525;55.926;21.066;2023-07-02T02:03:44;99850.64;;;18.54;79.97
54628;BME280;40525;55.926;21.066;2023-07-02T02:06:24;99849.55;;;18.54;79.98
54628;BME280;40525;55.926;21.066;2023-07-02T02:09:05;99847.00;;;18.55;79.39
54628;BME280;40525;55.926;21.066;2023-07-02T02:11:48;99841.21;;;18.54;79.26
54628;BME280;40525;55.926;21.066;2023-07-02T02:14:29;99842.81;;;18.52;79.60
54628;BME280;40525;55.926;21.066;2023-07-02T02:17:09;99843.54;;;18.50;79.71
54628;BME280;40525;55.926;21.066;2023-07-02T02:19:49;99847.71;;;18.47;79.14
54628;BME280;40525;55.926;21.066;2023-07-02T02:22:30;99845.23;;;18.47;79.12
54628;BME280;40525;55.926;21.066;2023-07-02T02:25:10;99841.88;;;18.47;78.98
54628;BME280;40525;55.926;21.066;2023-07-02T02:27:51;99833.80;;;18.48;78.93
54628;BME280;40525;55.926;21.066;2023-07-02T02:30:31;99829.38;;;18.46;79.02
54628;BME280;40525;55.926;21.066;2023-07-02T02:33:11;99828.02;;;18.47;78.93
54628;BME280;40525;55.926;21.066;2023-07-02T02:35:52;99828.20;;;18.51;79.17
54628;BME280;40525;55.926;21.066;2023-07-02T02:38:32;99826.41;;;18.51;79.38
54628;BME280;40525;55.926;21.066;2023-07-02T02:41:14;99823.20;;;18.51;79.58
54628;BME280;40525;55.926;21.066;2023-07-02T02:43:57;99815.78;;;18.52;79.92
54628;BME280;40525;55.926;21.066;2023-07-02T02:46:44;99813.67;;;18.54;79.80
54628;BME280;40525;55.926;21.066;2023-07-02T02:49:38;99812.14;;;18.57;79.85
54628;BME280;40525;55.926;21.066;2023-07-02T02:52:19;99811.23;;;18.57;80.54
54628;BME280;40525;55.926;21.066;2023-07-02T02:55:00;99802.95;;;18.56;80.51
54628;BME280;40525;55.926;21.066;2023-07-02T02:57:43;99807.59;;;18.56;80.37
54628;BME280;40525;55.926;21.066;2023-07-02T03:00:24;99811.31;;;18.52;79.85
54628;BME280;40525;55.926;21.066;2023-07-02T03:03:07;99798.35;;;18.48;79.67
54628;BME280;40525;55.926;21.066;2023-07-02T03:05:48;99797.39;;;18.45;79.17
54628;BME280;40525;55.926;21.066;2023-07-02T03:08:29;99794.57;;;18.43;79.15
54628;BME280;40525;55.926;21.066;2023-07-02T03:11:11;99790.70;;;18.42;79.59
54628;BME280;40525;55.926;21.066;2023-07-02T03:13:51;99789.57;;;18.45;80.13
54628;BME280;40525;55.926;21.066;2023-07-02T03:16:32;99788.08;;;18.48;80.22
54628;BME280;40525;55.926;21.066;2023-07-02T03:19:14;99786.10;;;18.52;80.98
54628;BME280;40525;55.926;21.066;2023-07-02T03:21:54;99785.20;;;18.54;81.50
54628;BME280;40525;55.926;21.066;2023-07-02T03:24:34;99775.64;;;18.55;81.39
54628;BME280;40525;55.926;21.066;2023-07-02T03:27:15;99778.05;;;18.56;81.82
54628;BME280;40525;55.926;21.066;2023-07-02T03:29:55;99771.54;;;18.59;81.97
54628;BME280;40525;55.926;21.066;2023-07-02T03:32:37;99768.84;;;18.63;82.20
54628;BME280;40525;55.926;21.066;2023-07-02T03:35:17;99767.06;;;18.65;82.54
54628;BME280;40525;55.926;21.066;2023-07-02T03:37:57;99766.48;;;18.65;82.94
54628;BME280;40525;55.926;21.066;2023-07-02T03:40:37;99773.52;;;18.64;83.22
54628;BME280;40525;55.926;21.066;2023-07-02T03:43:19;99763.20;;;18.64;82.90
54628;BME280;40525;55.926;21.066;2023-07-02T03:46:06;99759.89;;;18.65;82.79
54628;BME280;40525;55.926;21.066;2023-07-02T03:49:00;99759.60;;;18.66;82.91
54628;BME280;40525;55.926;21.066;2023-07-02T03:51:34;99757.34;;;18.64;83.03
54628;BME280;40525;55.926;21.066;2023-07-02T03:54:24;99759.39;;;18.61;83.07
54628;BME280;40525;55.926;21.066;2023-07-02T03:57:05;99755.47;;;18.59;83.18
54628;BME280;40525;55.926;21.066;2023-07-02T03:59:46;99755.64;;;18.60;83.26
54628;BME280;40525;55.926;21.066;2023-07-02T04:02:40;99752.98;;;18.61;83.34
54628;BME280;40525;55.926;21.066;2023-07-02T04:05:21;99750.63;;;18.63;83.49
54628;BME280;40525;55.926;21.066;2023-07-02T04:08:02;99750.59;;;18.66;83.44
54628;BME280;40525;55.926;21.066;2023-07-02T04:10:42;99744.98;;;18.63;83.26
54628;BME280;40525;55.926;21.066;2023-07-02T04:13:24;99740.89;;;18.65;83.49
54628;BME280;40525;55.926;21.066;2023-07-02T04:16:06;99747.20;;;18.67;83.62
54628;BME280;40525;55.926;21.066;2023-07-02T04:18:47;99738.27;;;18.66;84.03
54628;BME280;40525;55.926;21.066;2023-07-02T04:21:28;99738.89;;;18.65;84.32
54628;BME280;40525;55.926;21.066;2023-07-02T04:24:08;99737.41;;;18.64;84.51
54628;BME280;40525;55.926;21.066;2023-07-02T04:26:49;99740.20;;;18.61;85.02
54628;BME280;40525;55.926;21.066;2023-07-02T04:29:50;99730.55;;;18.56;85.59
54628;BME280;40525;55.926;21.066;2023-07-02T04:32:30;99725.86;;;18.54;85.59
54628;BME280;40525;55.926;21.066;2023-07-02T04:35:10;99731.13;;;18.51;87.22
54628;BME280;40525;55.926;21.066;2023-07-02T04:37:51;99723.92;;;18.45;87.36
54628;BME280;40525;55.926;21.066;2023-07-02T04:40:31;99717.39;;;18.39;88.53
54628;BME280;40525;55.926;21.066;2023-07-02T04:43:11;99723.52;;;18.34;89.81
54628;BME280;40525;55.926;21.066;2023-07-02T04:45:59;99721.53;;;18.27;90.19
54628;BME280;40525;55.926;21.066;2023-07-02T04:48:54;99732.05;;;18.23;91.95
54628;BME280;40525;55.926;21.066;2023-07-02T04:51:27;99731.21;;;18.18;92.38
54628;BME280;40525;55.926;21.066;2023-07-02T04:54:14;99726.34;;;18.15;92.01
54628;BME280;40525;55.926;21.066;2023-07-02T04:56:47;99726.27;;;18.12;92.01
54628;BME280;40525;55.926;21.066;2023-07-02T04:59:35;99729.02;;;18.08;92.89
54628;BME280;40525;55.926;21.066;2023-07-02T05:02:15;99729.30;;;18.03;93.26
54628;BME280;40525;55.926;21.066;2023-07-02T05:04:55;99727.61;;;18.02;93.67
54628;BME280;40525;55.926;21.066;2023-07-02T05:07:35;99728.74;;;18.01;94.14
54628;BME280;40525;55.926;21.066;2023-07-02T05:10:16;99727.11;;;17.97;94.45
54628;BME280;40525;55.926;21.066;2023-07-02T05:12:58;99719.81;;;17.95;94.72
54628;BME280;40525;55.926;21.066;2023-07-02T05:15:38;99717.41;;;17.92;95.27
54628;BME280;40525;55.926;21.066;2023-07-02T05:18:18;99710.92;;;17.89;94.98
54628;BME280;40525;55.926;21.066;2023-07-02T05:20:58;99708.44;;;17.86;94.87
54628;BME280;40525;55.926;21.066;2023-07-02T05:23:38;99707.57;;;17.81;95.03
54628;BME280;40525;55.926;21.066;2023-07-02T05:26:19;99704.45;;;17.78;95.06
54628;BME280;40525;55.926;21.066;2023-07-02T05:28:59;99701.81;;;17.74;95.69
54628;BME280;40525;55.926;21.066;2023-07-02T05:31:41;99698.77;;;17.72;96.63
54628;BME280;40525;55.926;21.066;2023-07-02T05:34:21;99698.16;;;17.71;97.26
54628;BME280;40525;55.926;21.066;2023-07-02T05:37:02;99697.68;;;17.71;97.01
54628;BME280;40525;55.926;21.066;2023-07-02T05:39:42;99705.95;;;17.72;97.30
54628;BME280;40525;55.926;21.066;2023-07-02T05:42:22;99708.89;;;17.71;97.02
54628;BME280;40525;55.926;21.066;2023-07-02T05:45:02;99714.11;;;17.70;96.63
54628;BME280;40525;55.926;21.066;2023-07-02T05:47:42;99716.85;;;17.67;96.54
54628;BME280;40525;55.926;21.066;2023-07-02T05:50:23;99715.10;;;17.67;96.09
54628;BME280;40525;55.926;21.066;2023-07-02T05:53:04;99710.00;;;17.68;95.80
54628;BME280;40525;55.926;21.066;2023-07-02T05:55:44;99703.39;;;17.71;95.69
54628;BME280;40525;55.926;21.066;2023-07-02T05:58:25;99699.42;;;17.77;95.73
54628;BME280;40525;55.926;21.066;2023-07-02T06:01:20;99699.13;;;17.84;95.40
54628;BME280;40525;55.926;21.066;2023-07-02T06:03:59;99702.73;;;17.88;95.61
54628;BME280;40525;55.926;21.066;2023-07-02T06:06:40;99710.61;;;17.87;95.46
54628;BME280;40525;55.926;21.066;2023-07-02T06:09:21;99705.81;;;17.85;95.82
54628;BME280;40525;55.926;21.066;2023-07-02T06:12:01;99710.86;;;17.84;96.07
54628;BME280;40525;55.926;21.066;2023-07-02T06:14:42;99714.27;;;17.80;96.63
54628;BME280;40525;55.926;21.066;2023-07-02T06:17:23;99711.04;;;17.76;96.70
54628;BME280;40525;55.926;21.066;2023-07-02T06:20:07;99716.66;;;17.73;96.91
54628;BME280;40525;55.926;21.066;2023-07-02T06:22:49;99713.98;;;17.67;96.97
54628;BME280;40525;55.926;21.066;2023-07-02T06:25:30;99710.83;;;17.65;97.37
54628;BME280;40525;55.926;21.066;2023-07-02T06:28:10;99713.44;;;17.66;97.34
54628;BME280;40525;55.926;21.066;2023-07-02T06:30:51;99712.38;;;17.66;97.59
54628;BME280;40525;55.926;21.066;2023-07-02T06:33:32;99708.14;;;17.64;98.43
54628;BME280;40525;55.926;21.066;2023-07-02T06:36:15;99701.90;;;17.62;99.59
54628;BME280;40525;55.926;21.066;2023-07-02T06:38:55;99693.34;;;17.60;100.00
54628;BME280;40525;55.926;21.066;2023-07-02T06:41:38;99686.27;;;17.58;100.00
54628;BME280;40525;55.926;21.066;2023-07-02T06:44:18;99685.11;;;17.56;100.00
54628;BME280;40525;55.926;21.066;2023-07-02T06:46:58;99682.84;;;17.54;100.00
54628;BME280;40525;55.926;21.066;2023-07-02T06:49:40;99678.77;;;17.52;100.00
54628;BME280;40525;55.926;21.066;2023-07-02T06:52:21;99678.27;;;17.53;100.00
54628;BME280;40525;55.926;21.066;2023-07-02T06:55:03;99673.34;;;17.55;100.00
54628;BME280;40525;55.926;21.066;2023-07-02T06:57:45;99670.92;;;17.58;100.00
54628;BME280;40525;55.926;21.066;2023-07-02T07:00:26;99674.90;;;17.62;100.00
54628;BME280;40525;55.926;21.066;2023-07-02T07:03:08;99673.48;;;17.62;100.00
54628;BME280;40525;55.926;21.066;2023-07-02T07:05:49;99672.02;;;17.66;100.00
54628;BME280;40525;55.926;21.066;2023-07-02T07:08:31;99674.84;;;17.68;100.00
54628;BME280;40525;55.926;21.066;2023-07-02T07:11:12;99669.54;;;17.69;100.00
54628;BME280;40525;55.926;21.066;2023-07-02T07:13:52;99664.88;;;17.70;100.00
54628;BME280;40525;55.926;21.066;2023-07-02T07:16:32;99661.08;;;17.69;100.00
54628;BME280;40525;55.926;21.066;2023-07-02T07:19:12;99660.90;;;17.67;100.00
54628;BME280;40525;55.926;21.066;2023-07-02T07:21:53;99658.73;;;17.67;100.00
54628;BME280;40525;55.926;21.066;2023-07-02T07:24:32;99656.34;;;17.70;100.00
54628;BME280;40525;55.926;21.066;2023-07-02T07:27:12;99659.29;;;17.75;100.00
54628;BME280;40525;55.926;21.066;2023-07-02T07:29:52;99654.13;;;17.77;100.00
54628;BME280;40525;55.926;21.066;2023-07-02T07:32:32;99651.56;;;17.78;100.00
54628;BME280;40525;55.926;21.066;2023-07-02T07:35:15;99653.38;;;17.77;100.00
54628;BME280;40525;55.926;21.066;2023-07-02T07:37:56;99652.31;;;17.77;100.00
54628;BME280;40525;55.926;21.066;2023-07-02T07:40:36;99650.01;;;17.83;100.00
54628;BME280;40525;55.926;21.066;2023-07-02T07:43:17;99649.50;;;17.85;100.00
54628;BME280;40525;55.926;21.066;2023-07-02T07:45:57;99644.95;;;17.86;100.00
54628;BME280;40525;55.926;21.066;2023-07-02T07:48:48;99635.80;;;17.91;100.00
54628;BME280;40525;55.926;21.066;2023-07-02T07:51:43;99642.91;;;17.96;100.00
54628;BME280;40525;55.926;21.066;2023-07-02T07:54:18;99645.91;;;17.99;100.00
54628;BME280;40525;55.926;21.066;2023-07-02T07:57:04;99645.30;;;17.98;100.00
54628;BME280;40525;55.926;21.066;2023-07-02T07:59:39;99645.35;;;17.95;100.00
54628;BME280;40525;55.926;21.066;2023-07-02T08:02:25;99638.02;;;17.95;100.00
54628;BME280;40525;55.926;21.066;2023-07-02T08:04:59;99633.86;;;17.96;100.00
54628;BME280;40525;55.926;21.066;2023-07-02T08:07:45;99625.95;;;17.93;100.00
54628;BME280;40525;55.926;21.066;2023-07-02T08:10:19;99622.86;;;17.96;100.00
54628;BME280;40525;55.926;21.066;2023-07-02T08:13:05;99623.38;;;18.00;100.00
54628;BME280;40525;55.926;21.066;2023-07-02T08:15:46;99623.29;;;18.10;100.00
54628;BME280;40525;55.926;21.066;2023-07-02T08:18:25;99625.61;;;18.21;100.00
54628;BME280;40525;55.926;21.066;2023-07-02T08:21:05;99624.27;;;18.30;100.00
54628;BME280;40525;55.926;21.066;2023-07-02T08:23:45;99621.38;;;18.38;100.00
54628;BME280;40525;55.926;21.066;2023-07-02T08:26:25;99615.43;;;18.42;100.00
54628;BME280;40525;55.926;21.066;2023-07-02T08:29:05;99615.42;;;18.51;100.00
54628;BME280;40525;55.926;21.066;2023-07-02T08:31:45;99614.95;;;18.60;100.00
54628;BME280;40525;55.926;21.066;2023-07-02T08:34:26;99621.73;;;18.69;100.00
54628;BME280;40525;55.926;21.066;2023-07-02T08:37:06;99618.86;;;18.77;100.00
54628;BME280;40525;55.926;21.066;2023-07-02T08:39:48;99619.95;;;18.79;100.00
54628;BME280;40525;55.926;21.066;2023-07-02T08:42:31;99619.27;;;18.75;100.00
54628;BME280;40525;55.926;21.066;2023-07-02T08:45:12;99625.19;;;18.70;100.00
54628;BME280;40525;55.926;21.066;2023-07-02T08:48:04;99634.31;;;18.60;100.00
54628;BME280;40525;55.926;21.066;2023-07-02T08:51:02;99634.16;;;18.53;100.00
54628;BME280;40525;55.926;21.066;2023-07-02T08:53:36;99638.48;;;18.47;100.00
54628;BME280;40525;55.926;21.066;2023-07-02T08:56:23;99642.92;;;18.34;100.00
54628;BME280;40525;55.926;21.066;2023-07-02T08:58:57;99640.25;;;18.15;100.00
54628;BME280;40525;55.926;21.066;2023-07-02T09:01:49;99635.04;;;17.99;100.00
54628;BME280;40525;55.926;21.066;2023-07-02T09:04:24;99629.19;;;17.81;100.00
54628;BME280;40525;55.926;21.066;2023-07-02T09:07:11;99638.13;;;17.67;100.00
54628;BME280;40525;55.926;21.066;2023-07-02T09:09:49;99652.16;;;17.57;100.00
54628;BME280;40525;55.926;21.066;2023-07-02T09:12:36;99656.91;;;17.46;100.00
54628;BME280;40525;55.926;21.066;2023-07-02T09:15:14;99660.38;;;17.42;100.00
54628;BME280;40525;55.926;21.066;2023-07-02T09:18:01;99654.60;;;17.39;100.00
54628;BME280;40525;55.926;21.066;2023-07-02T09:20:41;99638.48;;;17.40;100.00
54628;BME280;40525;55.926;21.066;2023-07-02T09:23:33;99643.92;;;17.48;100.00
54628;BME280;40525;55.926;21.066;2023-07-02T09:26:20;99649.09;;;17.56;100.00
54628;BME280;40525;55.926;21.066;2023-07-02T09:29:01;99649.20;;;17.63;100.00
54628;BME280;40525;55.926;21.066;2023-07-02T09:31:44;99644.86;;;17.69;100.00
54628;BME280;40525;55.926;21.066;2023-07-02T09:34:42;99638.29;;;17.81;100.00
54628;BME280;40525;55.926;21.066;2023-07-02T09:37:23;99636.25;;;17.89;100.00
54628;BME280;40525;55.926;21.066;2023-07-02T09:40:05;99633.02;;;17.97;100.00
54628;BME280;40525;55.926;21.066;2023-07-02T09:42:49;99631.77;;;18.03;100.00
54628;BME280;40525;55.926;21.066;2023-07-02T09:45:32;99634.29;;;18.07;100.00
54628;BME280;40525;55.926;21.066;2023-07-02T09:48:22;99627.73;;;18.08;100.00
54628;BME280;40525;55.926;21.066;2023-07-02T09:51:17;99633.14;;;18.13;100.00
54628;BME280;40525;55.926;21.066;2023-07-02T09:53:52;99625.75;;;18.22;100.00
54628;BME280;40525;55.926;21.066;2023-07-02T09:56:39;99625.06;;;18.32;100.00
54628;BME280;40525;55.926;21.066;2023-07-02T09:59:14;99633.27;;;18.38;100.00
54628;BME280;40525;55.926;21.066;2023-07-02T10:02:03;99639.89;;;18.32;100.00
54628;BME280;40525;55.926;21.066;2023-07-02T10:04:42;99636.87;;;18.22;99.09
54628;BME280;40525;55.926;21.066;2023-07-02T10:07:38;99649.38;;;18.11;97.91
54628;BME280;40525;55.926;21.066;2023-07-02T10:10:12;99661.48;;;18.03;98.22
54628;BME280;40525;55.926;21.066;2023-07-02T10:13:00;99675.41;;;17.97;98.71
54628;BME280;40525;55.926;21.066;2023-07-02T10:15:34;99676.50;;;17.90;99.19
54628;BME280;40525;55.926;21.066;2023-07-02T10:18:26;99683.45;;;17.87;99.54
54628;BME280;40525;55.926;21.066;2023-07-02T10:21:00;99680.33;;;17.84;99.83
54628;BME280;40525;55.926;21.066;2023-07-02T10:23:48;99686.43;;;17.83;99.93
54628;BME280;40525;55.926;21.066;2023-07-02T10:26:21;99692.09;;;17.77;100.00
54628;BME280;40525;55.926;21.066;2023-07-02T10:29:18;99686.91;;;17.70;100.00
54628;BME280;40525;55.926;21.066;2023-07-02T10:31:57;99692.16;;;17.67;100.00
54628;BME280;40525;55.926;21.066;2023-07-02T10:34:46;99681.95;;;17.60;99.94
54628;BME280;40525;55.926;21.066;2023-07-02T10:37:20;99680.77;;;17.54;98.65
54628;BME280;40525;55.926;21.066;2023-07-02T10:40:08;99685.77;;;17.44;96.36
54628;BME280;40525;55.926;21.066;2023-07-02T10:42:50;99690.02;;;17.36;97.01
54628;BME280;40525;55.926;21.066;2023-07-02T10:45:39;99696.59;;;17.34;98.25
54628;BME280;40525;55.926;21.066;2023-07-02T10:48:14;99702.92;;;17.31;97.38
54628;BME280;40525;55.926;21.066;2023-07-02T10:51:11;99703.88;;;17.23;95.00
54628;BME280;40525;55.926;21.066;2023-07-02T10:53:44;99698.59;;;17.18;94.91
54628;BME280;40525;55.926;21.066;2023-07-02T10:56:32;99705.46;;;17.16;95.57
54628;BME280;40525;55.926;21.066;2023-07-02T10:59:05;99706.80;;;17.13;95.36
54628;BME280;40525;55.926;21.066;2023-07-02T11:01:52;99709.45;;;17.11;96.10
54628;BME280;40525;55.926;21.066;2023-07-02T11:04:26;99706.63;;;17.13;96.20
54628;BME280;40525;55.926;21.066;2023-07-02T11:07:14;99705.98;;;17.16;96.36
54628;BME280;40525;55.926;21.066;2023-07-02T11:09:51;99709.23;;;17.22;96.70
54628;BME280;40525;55.926;21.066;2023-07-02T11:12:39;99710.27;;;17.26;96.77
54628;BME280;40525;55.926;21.066;2023-07-02T11:15:15;99707.40;;;17.30;96.71
54628;BME280;40525;55.926;21.066;2023-07-02T11:18:13;99710.27;;;17.36;96.47
54628;BME280;40525;55.926;21.066;2023-07-02T11:20:48;99701.58;;;17.40;96.09
54628;BME280;40525;55.926;21.066;2023-07-02T11:23:35;99707.39;;;17.44;95.51
54628;BME280;40525;55.926;21.066;2023-07-02T11:26:08;99709.61;;;17.47;95.54
54628;BME280;40525;55.926;21.066;2023-07-02T11:28:55;99708.63;;;17.48;95.54
54628;BME280;40525;55.926;21.066;2023-07-02T11:31:28;99713.23;;;17.54;95.49
54628;BME280;40525;55.926;21.066;2023-07-02T11:34:16;99708.58;;;17.62;95.26
54628;BME280;40525;55.926;21.066;2023-07-02T11:36:51;99709.02;;;17.73;95.09
54628;BME280;40525;55.926;21.066;2023-07-02T11:39:43;99710.57;;;17.84;94.60
54628;BME280;40525;55.926;21.066;2023-07-02T11:42:17;99712.02;;;17.93;94.43
54628;BME280;40525;55.926;21.066;2023-07-02T11:45:04;99716.19;;;18.04;94.11
54628;BME280;40525;55.926;21.066;2023-07-02T11:47:38;99716.55;;;18.19;94.29
54628;BME280;40525;55.926;21.066;2023-07-02T11:50:35;99722.86;;;18.35;93.37
54628;BME280;40525;55.926;21.066;2023-07-02T11:53:09;99723.27;;;18.48;93.02
54628;BME280;40525;55.926;21.066;2023-07-02T11:55:56;99728.32;;;18.51;92.40
54628;BME280;40525;55.926;21.066;2023-07-02T11:58:29;99732.43;;;18.49;91.60
54628;BME280;40525;55.926;21.066;2023-07-02T12:01:17;99736.97;;;18.51;89.89
54628;BME280;40525;55.926;21.066;2023-07-02T12:03:52;99741.95;;;18.67;88.66
54628;BME280;40525;55.926;21.066;2023-07-02T12:06:40;99744.88;;;18.92;88.05
54628;BME280;40525;55.926;21.066;2023-07-02T12:09:13;99758.93;;;19.31;86.90
54628;BME280;40525;55.926;21.066;2023-07-02T12:12:00;99766.13;;;19.51;84.84
54628;BME280;40525;55.926;21.066;2023-07-02T12:14:33;99770.81;;;19.61;82.28
54628;BME280;40525;55.926;21.066;2023-07-02T12:17:24;99777.36;;;19.89;78.68
54628;BME280;40525;55.926;21.066;2023-07-02T12:19:58;99766.12;;;20.00;78.35
54628;BME280;40525;55.926;21.066;2023-07-02T12:22:45;99768.89;;;20.13;77.54
54628;BME280;40525;55.926;21.066;2023-07-02T12:25:18;99766.15;;;20.13;78.06
54628;BME280;40525;55.926;21.066;2023-07-02T12:28:05;99767.58;;;20.14;76.82
54628;BME280;40525;55.926;21.066;2023-07-02T12:30:39;99769.65;;;20.32;76.54
54628;BME280;40525;55.926;21.066;2023-07-02T12:33:26;99768.33;;;20.64;75.78
54628;BME280;40525;55.926;21.066;2023-07-02T12:35:59;99779.99;;;20.88;74.55
54628;BME280;40525;55.926;21.066;2023-07-02T12:38:45;99773.08;;;21.01;73.62
54628;BME280;40525;55.926;21.066;2023-07-02T12:41:19;99771.39;;;20.95;73.50
54628;BME280;40525;55.926;21.066;2023-07-02T12:44:06;99770.20;;;21.01;73.07
54628;BME280;40525;55.926;21.066;2023-07-02T12:46:39;99782.01;;;20.96;73.12
54628;BME280;40525;55.926;21.066;2023-07-02T12:49:27;99785.02;;;21.00;73.16
54628;BME280;40525;55.926;21.066;2023-07-02T12:52:01;99790.43;;;20.78;71.78
54628;BME280;40525;55.926;21.066;2023-07-02T12:54:50;99785.23;;;20.91;71.77
54628;BME280;40525;55.926;21.066;2023-07-02T12:57:23;99795.09;;;20.85;71.17
54628;BME280;40525;55.926;21.066;2023-07-02T13:00:12;99789.58;;;20.90;70.81
54628;BME280;40525;55.926;21.066;2023-07-02T13:02:47;99789.41;;;21.43;68.63
54628;BME280;40525;55.926;21.066;2023-07-02T13:05:45;99788.45;;;21.56;68.40
54628;BME280;40525;55.926;21.066;2023-07-02T13:08:18;99803.04;;;21.55;67.00
54628;BME280;40525;55.926;21.066;2023-07-02T13:11:07;99803.33;;;21.67;65.20
54628;BME280;40525;55.926;21.066;2023-07-02T13:13:40;99798.08;;;21.72;64.22
54628;BME280;40525;55.926;21.066;2023-07-02T13:16:27;99805.48;;;21.73;62.89
54628;BME280;40525;55.926;21.066;2023-07-02T13:19:00;99801.16;;;21.23;63.49
54628;BME280;40525;55.926;21.066;2023-07-02T13:21:48;99802.05;;;21.18;64.26
54628;BME280;40525;55.926;21.066;2023-07-02T13:24:22;99803.92;;;21.53;64.09
54628;BME280;40525;55.926;21.066;2023-07-02T13:27:12;99809.02;;;22.01;62.21
54628;BME280;40525;55.926;21.066;2023-07-02T13:29:47;99808.21;;;21.98;61.51
54628;BME280;40525;55.926;21.066;2023-07-02T13:32:35;99811.12;;;21.71;62.47
54628;BME280;40525;55.926;21.066;2023-07-02T13:35:08;99817.01;;;21.24;62.80
54628;BME280;40525;55.926;21.066;2023-07-02T13:37:56;99813.50;;;20.66;64.62
54628;BME280;40525;55.926;21.066;2023-07-02T13:40:32;99822.88;;;20.46;66.66
54628;BME280;40525;55.926;21.066;2023-07-02T13:43:19;99835.39;;;20.65;66.45
54628;BME280;40525;55.926;21.066;2023-07-02T13:45:53;99829.22;;;21.08;64.42
54628;BME280;40525;55.926;21.066;2023-07-02T13:48:39;99833.15;;;21.50;60.67
54628;BME280;40525;55.926;21.066;2023-07-02T13:51:33;99836.49;;;21.80;58.48
54628;BME280;40525;55.926;21.066;2023-07-02T13:54:27;99841.94;;;22.01;57.47
54628;BME280;40525;55.926;21.066;2023-07-02T13:57:03;99843.14;;;22.16;58.13
54628;BME280;40525;55.926;21.066;2023-07-02T13:59:50;99834.57;;;22.43;58.51
54628;BME280;40525;55.926;21.066;2023-07-02T14:02:24;99837.75;;;22.56;58.55
54628;BME280;40525;55.926;21.066;2023-07-02T14:05:12;99843.98;;;22.69;58.06